Time;durP1;ratioP1;P1;durP2;ratioP2;P2;SDS_P1;SDS_P2;PMS_P1;PMS_P2;Temp;Humidity;BMP_temperature;BMP_pressure;BME280_temperature;BME280_humidity;BME280_pressure;Samples;Min_cycle;Max_cycle;Signal;HPM_P1;HPM_P2
2023/05/24 00:01:42;;;;;;;8.07;5.75;;;23.40;99.90;;;;;;5045883;22;20049;-55
2023/05/24 00:04:09;;;;;;;5.75;4.38;;;23.30;99.90;;;;;;5033010;28;20099;-55
2023/05/24 00:06:36;;;;;;;5.38;3.70;;;23.30;99.90;;;;;;5033015;28;20029;-56
2023/05/24 00:09:03;;;;;;;6.43;4.43;;;23.30;99.90;;;;;;5032992;28;20425;-55
2023/05/24 00:11:28;;;;;;;8.65;4.80;;;23.30;99.90;;;;;;5033034;28;20096;-55
2023/05/24 00:13:54;;;;;;;7.22;4.53;;;23.30;99.90;;;;;;5032898;28;20517;-55
2023/05/24 00:16:20;;;;;;;6.18;4.55;;;23.30;99.90;;;;;;5032840;28;20033;-55
2023/05/24 00:18:46;;;;;;;7.35;4.88;;;23.30;99.90;;;;;;5036187;28;20467;-58
2023/05/24 00:21:13;;;;;;;7.20;5.05;;;23.30;99.90;;;;;;5035633;28;20056;-57
2023/05/24 00:23:40;;;;;;;7.97;5.00;;;23.30;99.90;;;;;;5037037;28;20473;-57
2023/05/24 00:26:07;;;;;;;8.13;5.38;;;23.30;99.90;;;;;;5036780;28;20029;-56
2023/05/24 00:28:34;;;;;;;8.02;4.68;;;23.20;99.90;;;;;;5036644;28;20029;-56
2023/05/24 00:31:00;;;;;;;10.23;5.35;;;23.20;99.90;;;;;;5036667;28;20029;-56
2023/05/24 00:33:26;;;;;;;7.38;4.95;;;23.20;99.90;;;;;;5036736;28;20048;-55
2023/05/24 00:35:55;;;;;;;7.85;4.50;;;23.20;99.90;;;;;;5036749;28;20501;-57
2023/05/24 00:38:27;;;;;;;8.55;4.95;;;23.20;99.90;;;;;;5036677;28;20022;-56
2023/05/24 00:40:59;;;;;;;7.00;4.95;;;23.20;99.90;;;;;;5036578;28;20436;-56
2023/05/24 00:43:25;;;;;;;6.55;4.40;;;23.20;99.90;;;;;;5036360;28;20018;-57
2023/05/24 00:46:26;;;;;;;7.63;4.80;;;23.20;99.90;;;;;;5036669;28;20025;-57
2023/05/24 00:48:52;;;;;;;6.63;4.63;;;23.20;99.90;;;;;;5014472;28;20029;-56
2023/05/24 00:51:18;;;;;;;8.00;5.38;;;23.10;99.90;;;;;;5036544;28;20378;-56
2023/05/24 00:53:45;;;;;;;7.35;4.80;;;23.10;99.90;;;;;;5036228;28;20033;-56
2023/05/24 00:56:13;;;;;;;7.85;5.07;;;23.10;99.90;;;;;;5036085;28;20104;-56
2023/05/24 00:58:39;;;;;;;5.88;4.10;;;23.20;99.90;;;;;;5036312;28;20477;-56
2023/05/24 01:01:05;;;;;;;7.07;5.18;;;23.10;99.90;;;;;;5036603;28;20083;-58
2023/05/24 01:03:32;;;;;;;7.38;4.80;;;23.20;99.90;;;;;;5036075;28;20045;-57
2023/05/24 01:06:00;;;;;;;7.87;4.90;;;23.10;99.90;;;;;;5036090;28;20013;-59
2023/05/24 01:08:41;;;;;;;6.70;4.95;;;23.10;99.90;;;;;;5035908;28;20473;-58
2023/05/24 01:11:23;;;;;;;9.32;5.38;;;23.10;99.90;;;;;;5035936;28;20105;-58
2023/05/24 01:14:07;;;;;;;7.00;5.22;;;23.10;99.90;;;;;;5036098;28;20029;-59
2023/05/24 01:16:45;;;;;;;11.50;5.55;;;23.10;99.90;;;;;;5035811;28;20033;-58
2023/05/24 01:19:42;;;;;;;6.22;4.90;;;23.10;99.90;;;;;;5035909;28;20032;-58
2023/05/24 01:22:28;;;;;;;7.05;4.97;;;23.10;99.90;;;;;;5035959;28;20083;-59
2023/05/24 01:25:11;;;;;;;5.43;4.15;;;23.10;99.90;;;;;;5035772;28;20112;-59
2023/05/24 01:27:38;;;;;;;8.35;5.53;;;23.10;99.90;;;;;;5035691;28;20377;-58
2023/05/24 01:30:05;;;;;;;8.32;4.85;;;23.10;99.90;;;;;;5035448;28;20433;-60
2023/05/24 01:32:31;;;;;;;9.60;5.05;;;23.10;99.90;;;;;;5035607;28;20021;-58
2023/05/24 01:34:57;;;;;;;7.53;5.20;;;23.10;99.90;;;;;;5035490;28;20034;-58
2023/05/24 01:37:23;;;;;;;7.80;4.95;;;23.10;99.90;;;;;;5035380;28;20482;-58
2023/05/24 01:39:49;;;;;;;6.95;4.75;;;23.00;99.90;;;;;;5035689;28;20033;-58
2023/05/24 01:42:44;;;;;;;7.25;5.18;;;23.00;99.90;;;;;;5035419;28;20127;-59
2023/05/24 01:45:16;;;;;;;8.02;4.90;;;23.00;99.90;;;;;;5017710;28;20072;-57
2023/05/24 01:48:06;;;;;;;8.65;4.95;;;23.00;99.90;;;;;;5035136;28;20025;-57
2023/05/24 01:50:45;;;;;;;9.05;5.07;;;23.00;99.90;;;;;;5035351;28;20033;-58
2023/05/24 01:53:15;;;;;;;6.43;4.80;;;23.00;99.90;;;;;;5035265;28;20044;-57
2023/05/24 01:55:42;;;;;;;5.63;4.47;;;23.00;99.90;;;;;;5034962;28;20038;-57
2023/05/24 01:58:10;;;;;;;8.23;5.47;;;23.00;99.90;;;;;;5033677;28;20032;-57
2023/05/24 02:00:37;;;;;;;7.22;5.10;;;23.00;99.90;;;;;;5023419;28;20369;-58
2023/05/24 02:03:03;;;;;;;;;;;23.00;99.90;;;;;;5029121;28;20037;-57
2023/05/24 02:05:31;;;;;;;6.20;4.28;;;23.00;99.90;;;;;;5034169;28;19908;-58
2023/05/24 02:07:57;;;;;;;8.32;5.25;;;23.00;99.90;;;;;;5034525;28;20413;-57
2023/05/24 02:10:23;;;;;;;10.35;5.00;;;23.00;99.90;;;;;;5034484;28;20038;-57
2023/05/24 02:12:48;;;;;;;8.25;4.97;;;23.00;99.90;;;;;;5034121;28;20466;-59
2023/05/24 02:15:14;;;;;;;7.28;4.85;;;22.90;99.90;;;;;;5032924;28;20040;-58
2023/05/24 02:17:41;;;;;;;7.28;4.72;;;22.90;99.90;;;;;;5034436;28;20106;-58
2023/05/24 02:20:08;;;;;;;7.47;5.47;;;22.90;99.90;;;;;;5034117;28;20083;-58
2023/05/24 02:22:34;;;;;;;6.93;5.10;;;22.90;99.90;;;;;;5034086;28;20160;-58
2023/05/24 02:25:00;;;;;;;7.30;4.88;;;22.90;99.90;;;;;;5034056;28;20698;-58
2023/05/24 02:27:26;;;;;;;8.07;5.20;;;22.90;99.90;;;;;;5032689;28;20021;-58
2023/05/24 02:29:51;;;;;;;6.38;4.82;;;22.90;99.90;;;;;;5049310;28;20068;-57
2023/05/24 02:32:17;;;;;;;7.68;5.20;;;22.90;99.90;;;;;;5034049;28;20014;-57
2023/05/24 02:34:43;;;;;;;6.72;4.40;;;22.90;99.90;;;;;;5033983;28;20040;-57
2023/05/24 02:37:13;;;;;;;8.77;4.85;;;22.90;99.90;;;;;;5034078;28;20053;-58
2023/05/24 02:39:42;;;;;;;6.00;4.25;;;22.90;99.90;;;;;;5025912;28;20390;-57
2023/05/24 02:42:10;;;;;;;7.47;5.10;;;22.90;99.90;;;;;;5033616;28;20013;-58
2023/05/24 02:44:35;;;;;;;6.20;4.25;;;22.90;99.90;;;;;;5032717;28;20405;-57
2023/05/24 02:47:01;;;;;;;7.03;4.63;;;22.90;99.90;;;;;;5033817;28;20104;-59
2023/05/24 02:49:27;;;;;;;7.35;5.00;;;22.90;99.90;;;;;;5033764;28;20056;-59
2023/05/24 02:51:53;;;;;;;7.32;4.95;;;22.90;99.90;;;;;;5033509;28;20029;-60
2023/05/24 02:54:18;;;;;;;7.32;5.07;;;22.90;99.90;;;;;;5033718;28;20029;-60
2023/05/24 02:56:44;;;;;;;8.20;4.97;;;22.90;99.90;;;;;;5032358;28;20092;-58
2023/05/24 02:59:11;;;;;;;7.15;5.03;;;22.90;99.90;;;;;;5033667;28;20053;-57
2023/05/24 03:01:37;;;;;;;6.07;4.97;;;22.90;99.90;;;;;;5046254;22;20501;-51
2023/05/24 03:04:02;;;;;;;6.38;5.07;;;22.90;99.90;;;;;;5032841;28;20029;-51
2023/05/24 03:06:28;;;;;;;6.63;5.05;;;22.90;99.90;;;;;;5033351;28;20067;-51
2023/05/24 03:08:54;;;;;;;9.93;5.95;;;22.90;99.90;;;;;;5033343;28;20029;-51
2023/05/24 03:11:20;;;;;;;5.32;4.50;;;22.90;99.90;;;;;;5028795;28;20373;-51
2023/05/24 03:13:47;;;;;;;7.97;5.05;;;22.90;99.90;;;;;;5032329;28;20025;-52
2023/05/24 03:16:13;;;;;;;7.70;5.00;;;22.90;99.90;;;;;;5033119;28;20044;-52
2023/05/24 03:18:39;;;;;;;8.18;5.38;;;22.90;99.90;;;;;;5031987;28;20033;-51
2023/05/24 03:21:06;;;;;;;6.30;4.70;;;22.90;99.90;;;;;;5032805;28;20032;-51
2023/05/24 03:23:32;;;;;;;8.43;5.47;;;22.90;99.90;;;;;;5032963;28;20026;-51
2023/05/24 03:25:58;;;;;;;6.00;4.25;;;22.90;99.90;;;;;;5032570;28;20044;-51
2023/05/24 03:28:23;;;;;;;7.60;4.72;;;22.90;99.90;;;;;;5033230;28;20029;-51
2023/05/24 03:30:49;;;;;;;6.82;4.82;;;22.90;99.90;;;;;;5032748;28;20033;-51
2023/05/24 03:33:15;;;;;;;7.03;5.15;;;22.90;99.90;;;;;;5033126;28;20024;-52
2023/05/24 03:35:41;;;;;;;6.53;4.78;;;22.90;99.90;;;;;;5032825;28;20531;-52
2023/05/24 03:38:06;;;;;;;7.40;5.00;;;22.90;99.90;;;;;;5032886;28;20064;-51
2023/05/24 03:40:33;;;;;;;7.57;5.20;;;22.90;99.90;;;;;;5032862;28;20039;-51
2023/05/24 03:42:59;;;;;;;7.75;5.22;;;22.90;99.90;;;;;;5033091;28;20468;-51
2023/05/24 03:45:25;;;;;;;6.70;4.63;;;22.90;99.90;;;;;;5032671;28;20052;-52
2023/05/24 03:47:50;;;;;;;5.88;4.68;;;22.90;99.90;;;;;;5032637;28;20028;-51
2023/05/24 03:50:16;;;;;;;7.18;5.05;;;22.90;99.90;;;;;;5032931;28;20022;-51
2023/05/24 03:52:42;;;;;;;6.85;4.88;;;22.90;99.90;;;;;;5031406;28;20021;-51
2023/05/24 03:55:08;;;;;;;5.68;4.30;;;22.90;99.90;;;;;;5032879;28;20025;-51
2023/05/24 03:57:34;;;;;;;5.90;4.63;;;22.90;99.90;;;;;;5032619;28;20112;-52
2023/05/24 04:00:00;;;;;;;6.68;4.68;;;22.90;99.90;;;;;;5032680;28;20343;-52
2023/05/24 04:02:25;;;;;;;6.65;4.82;;;22.90;99.90;;;;;;5031989;28;20132;-51
2023/05/24 04:04:52;;;;;;;9.35;4.55;;;22.90;99.90;;;;;;5030249;28;20026;-51
2023/05/24 04:07:18;;;;;;;6.78;4.70;;;22.90;99.90;;;;;;5031681;28;20474;-51
2023/05/24 04:09:44;;;;;;;7.18;4.75;;;22.90;99.90;;;;;;5031636;28;20017;-51
2023/05/24 04:12:10;;;;;;;6.80;4.88;;;22.80;99.90;;;;;;5031351;28;20025;-51
2023/05/24 04:14:36;;;;;;;7.50;5.13;;;22.90;99.90;;;;;;5031725;28;20036;-51
2023/05/24 04:17:04;;;;;;;6.00;4.30;;;22.80;99.90;;;;;;5031745;28;20477;-50
2023/05/24 04:19:32;;;;;;;6.85;4.72;;;22.80;99.90;;;;;;5031776;28;20029;-51
2023/05/24 04:21:58;;;;;;;6.32;4.75;;;22.80;99.90;;;;;;5031531;28;20030;-51
2023/05/24 04:24:24;;;;;;;5.90;4.28;;;22.80;99.90;;;;;;5030032;28;20109;-51
2023/05/24 04:26:50;;;;;;;8.93;5.05;;;22.80;99.90;;;;;;5031662;28;20022;-51
2023/05/24 04:29:17;;;;;;;7.25;4.78;;;22.80;99.90;;;;;;5031612;28;20021;-52
2023/05/24 04:31:43;;;;;;;6.38;4.60;;;22.80;99.90;;;;;;5018626;28;20370;-51
2023/05/24 04:34:12;;;;;;;8.85;4.82;;;22.80;99.90;;;;;;5031660;28;20058;-50
2023/05/24 04:36:38;;;;;;;5.25;3.92;;;22.80;99.90;;;;;;5031403;28;20040;-50
2023/05/24 04:39:04;;;;;;;7.10;4.60;;;22.80;99.90;;;;;;5031723;28;20025;-51
2023/05/24 04:41:31;;;;;;;7.68;4.70;;;22.80;99.90;;;;;;5031397;28;20030;-52
2023/05/24 04:43:58;;;;;;;5.63;4.18;;;22.80;99.90;;;;;;5014073;28;20026;-51
2023/05/24 04:46:25;;;;;;;;;;;22.80;99.90;;;;;;5032036;28;20485;-50
2023/05/24 04:48:50;;;;;;;5.07;3.72;;;22.80;99.90;;;;;;5031598;28;19912;-51
2023/05/24 04:51:16;;;;;;;5.35;4.15;;;22.80;99.90;;;;;;5013919;28;20097;-51
2023/05/24 04:53:42;;;;;;;5.13;4.20;;;22.80;99.90;;;;;;5031450;28;20029;-51
2023/05/24 04:56:08;;;;;;;5.35;3.97;;;22.80;99.90;;;;;;5031043;28;20038;-51
2023/05/24 04:58:34;;;;;;;7.20;3.80;;;22.80;99.90;;;;;;5031297;28;20080;-51
2023/05/24 05:01:01;;;;;;;7.07;4.57;;;22.80;99.90;;;;;;4968441;28;1807809;-51
2023/05/24 05:03:27;;;;;;;5.57;3.97;;;22.80;99.90;;;;;;5033653;28;20377;-50
2023/05/24 05:05:53;;;;;;;5.05;3.78;;;22.80;99.90;;;;;;5035714;28;20282;-51
2023/05/24 05:08:19;;;;;;;7.03;4.00;;;22.80;99.90;;;;;;5036081;28;20029;-50
2023/05/24 05:10:45;;;;;;;7.22;3.88;;;22.80;99.90;;;;;;5035936;28;20028;-50
2023/05/24 05:13:11;;;;;;;5.03;3.80;;;22.80;99.90;;;;;;5035430;28;20017;-50
2023/05/24 05:15:37;;;;;;;6.38;3.83;;;22.80;99.90;;;;;;5035660;28;20037;-50
2023/05/24 05:18:02;;;;;;;5.28;3.35;;;22.80;99.90;;;;;;5035468;28;20461;-50
2023/05/24 05:20:28;;;;;;;6.18;3.72;;;22.80;99.90;;;;;;5035561;28;20378;-50
2023/05/24 05:22:54;;;;;;;4.70;3.50;;;22.80;99.90;;;;;;5035302;28;20465;-50
2023/05/24 05:25:20;;;;;;;6.65;4.00;;;22.80;99.90;;;;;;5035600;28;20083;-51
2023/05/24 05:27:46;;;;;;;5.15;3.58;;;22.80;99.90;;;;;;5035329;28;20071;-50
2023/05/24 05:30:12;;;;;;;5.05;3.78;;;22.80;99.90;;;;;;5035596;28;20048;-51
2023/05/24 05:32:37;;;;;;;4.28;3.20;;;22.70;99.90;;;;;;5035280;28;20025;-51
2023/05/24 05:35:04;;;;;;;5.45;3.20;;;22.80;99.90;;;;;;5035367;28;20650;-50
2023/05/24 05:37:30;;;;;;;5.10;3.50;;;22.80;99.90;;;;;;5035230;28;20027;-51
2023/05/24 05:39:56;;;;;;;5.05;3.40;;;22.80;99.90;;;;;;5035185;28;20373;-50
2023/05/24 05:42:21;;;;;;;4.88;3.25;;;22.70;99.90;;;;;;5034995;28;20048;-50
2023/05/24 05:44:47;;;;;;;5.90;3.92;;;22.70;99.90;;;;;;5035116;28;20017;-50
2023/05/24 05:47:13;;;;;;;4.75;3.05;;;22.80;99.90;;;;;;5034867;28;20116;-51
2023/05/24 05:49:39;;;;;;;6.57;3.58;;;22.80;99.90;;;;;;5034451;28;20606;-51
2023/05/24 05:52:05;;;;;;;5.50;3.13;;;22.80;99.90;;;;;;5034906;28;20028;-50
2023/05/24 05:54:31;;;;;;;4.53;3.53;;;22.80;99.90;;;;;;5034832;28;20378;-50
2023/05/24 05:56:57;;;;;;;4.30;2.90;;;22.80;99.90;;;;;;5034872;28;20038;-50
2023/05/24 05:59:23;;;;;;;5.47;3.67;;;22.80;99.90;;;;;;5034917;28;20029;-50
2023/05/24 06:01:49;;;;;;;5.65;3.33;;;22.70;99.90;;;;;;5034626;28;20049;-50
2023/05/24 06:04:15;;;;;;;8.07;3.55;;;22.80;99.90;;;;;;5034764;28;20022;-50
2023/05/24 06:06:41;;;;;;;6.75;3.10;;;22.80;99.90;;;;;;5034749;28;20006;-51
2023/05/24 06:09:07;;;;;;;5.55;2.80;;;22.80;99.90;;;;;;5034619;28;20367;-51
2023/05/24 06:11:33;;;;;;;4.22;2.60;;;22.80;99.90;;;;;;5034542;28;20442;-51
2023/05/24 06:13:59;;;;;;;5.70;3.20;;;22.70;99.90;;;;;;5034532;28;20104;-51
2023/05/24 06:16:25;;;;;;;6.65;2.88;;;22.70;99.90;;;;;;5032877;28;20034;-49
2023/05/24 06:18:51;;;;;;;4.78;3.00;;;22.80;99.90;;;;;;5033863;28;20018;-51
2023/05/24 06:21:17;;;;;;;3.65;2.72;;;22.70;99.90;;;;;;5030908;28;20044;-51
2023/05/24 06:23:43;;;;;;;4.35;3.10;;;22.80;99.90;;;;;;5033488;28;20033;-51
2023/05/24 06:26:09;;;;;;;4.20;2.75;;;22.70;99.90;;;;;;5021297;28;20021;-51
2023/05/24 06:28:35;;;;;;;4.38;2.78;;;22.70;99.90;;;;;;5034231;28;20420;-51
2023/05/24 06:31:02;;;;;;;3.83;2.78;;;22.80;99.90;;;;;;5018167;28;20362;-51
2023/05/24 06:33:28;;;;;;;4.00;2.90;;;22.80;99.90;;;;;;5034362;28;20033;-52
2023/05/24 06:35:54;;;;;;;3.42;2.88;;;22.80;99.90;;;;;;5034124;28;20037;-51
2023/05/24 06:38:20;;;;;;;7.25;2.95;;;22.80;99.90;;;;;;5033931;28;20034;-51
2023/05/24 06:40:46;;;;;;;6.10;2.83;;;22.80;99.90;;;;;;5033517;28;20029;-53
2023/05/24 06:43:12;;;;;;;5.90;2.95;;;22.80;99.90;;;;;;5032829;28;20026;-52
2023/05/24 06:45:37;;;;;;;6.70;2.67;;;22.80;99.90;;;;;;5034361;28;20080;-52
2023/05/24 06:48:03;;;;;;;5.50;2.50;;;22.80;99.90;;;;;;5034103;28;20033;-50
2023/05/24 06:50:29;;;;;;;4.10;2.50;;;22.80;99.90;;;;;;5033895;28;20029;-51
2023/05/24 06:52:55;;;;;;;7.63;2.63;;;22.80;99.90;;;;;;5033804;28;20117;-50
2023/05/24 06:55:21;;;;;;;4.90;2.30;;;22.80;99.90;;;;;;5032519;28;20565;-51
2023/05/24 06:57:46;;;;;;;3.30;2.58;;;22.80;99.90;;;;;;5032381;28;20020;-51
2023/05/24 07:00:13;;;;;;;3.72;2.38;;;22.80;99.90;;;;;;5033720;28;20160;-51
2023/05/24 07:02:39;;;;;;;5.00;2.20;;;22.80;99.90;;;;;;5033724;28;20470;-51
2023/05/24 07:05:09;;;;;;;3.88;2.33;;;22.80;99.90;;;;;;5032433;28;20106;-50
2023/05/24 07:07:35;;;;;;;5.97;2.33;;;22.80;99.90;;;;;;5032299;28;20397;-50
2023/05/24 07:10:01;;;;;;;3.70;2.53;;;22.80;99.90;;;;;;5033355;28;20021;-50
2023/05/24 07:12:26;;;;;;;4.43;2.45;;;22.80;99.90;;;;;;5033448;28;20087;-51
2023/05/24 07:14:54;;;;;;;4.95;2.95;;;22.80;99.90;;;;;;5033371;28;20021;-52
2023/05/24 07:17:20;;;;;;;8.45;2.92;;;22.80;99.90;;;;;;5032848;28;20458;-52
2023/05/24 07:19:46;;;;;;;4.57;2.58;;;22.90;99.90;;;;;;5033166;28;20151;-56
2023/05/24 07:22:12;;;;;;;7.18;2.40;;;22.80;99.90;;;;;;5033156;28;20033;-51
2023/05/24 07:24:37;;;;;;;5.20;2.63;;;22.90;99.90;;;;;;5015897;28;20481;-51
2023/05/24 07:27:04;;;;;;;16.83;2.97;;;22.80;99.90;;;;;;5032931;28;20030;-51
2023/05/24 07:29:29;;;;;;;3.55;2.47;;;22.90;99.90;;;;;;5033022;28;20078;-51
2023/05/24 07:31:56;;;;;;;6.10;3.00;;;22.90;99.90;;;;;;5032970;28;20106;-51
2023/05/24 07:34:26;;;;;;;2.83;2.53;;;22.90;99.90;;;;;;5033254;28;20025;-51
2023/05/24 07:36:52;;;;;;;5.75;2.55;;;22.90;99.90;;;;;;5032770;28;20029;-51
2023/05/24 07:39:17;;;;;;;4.53;2.70;;;22.90;99.90;;;;;;5033222;28;20091;-51
2023/05/24 07:41:43;;;;;;;5.53;2.60;;;22.90;99.90;;;;;;5032963;28;20030;-51
2023/05/24 07:44:10;;;;;;;5.70;2.80;;;22.90;99.90;;;;;;5033051;28;20061;-50
2023/05/24 07:46:36;;;;;;;9.35;3.33;;;22.90;99.90;;;;;;5033278;28;20017;-50
2023/05/24 07:49:02;;;;;;;9.40;2.80;;;22.90;99.90;;;;;;5033009;28;20033;-50
2023/05/24 07:51:28;;;;;;;5.10;2.83;;;22.90;99.90;;;;;;5032831;28;20067;-50
2023/05/24 07:53:54;;;;;;;6.65;3.30;;;22.90;99.90;;;;;;5032938;28;20021;-50
2023/05/24 07:56:20;;;;;;;3.40;2.90;;;22.90;99.90;;;;;;5032977;28;20367;-50
2023/05/24 07:58:47;;;;;;;8.57;3.65;;;22.90;99.90;;;;;;5032887;28;20727;-50
2023/05/24 08:01:14;;;;;;;4.55;3.00;;;22.90;99.90;;;;;;5032795;28;20045;-50
2023/05/24 08:03:39;;;;;;;5.53;3.55;;;22.90;99.90;;;;;;5032585;28;20104;-51
2023/05/24 08:06:05;;;;;;;8.85;3.55;;;23.00;99.90;;;;;;5032977;28;20508;-50
2023/05/24 08:08:31;;;;;;;6.20;4.15;;;22.90;99.90;;;;;;5032832;28;20017;-50
2023/05/24 08:10:56;;;;;;;5.22;3.45;;;23.00;99.90;;;;;;5032710;28;20025;-51
2023/05/24 08:13:23;;;;;;;7.85;3.42;;;23.00;99.90;;;;;;5032613;28;20520;-50
2023/05/24 08:15:49;;;;;;;6.22;3.28;;;23.00;99.90;;;;;;5032633;28;20030;-50
2023/05/24 08:18:15;;;;;;;10.90;3.70;;;22.90;99.90;;;;;;5032377;28;20036;-50
2023/05/24 08:20:40;;;;;;;7.57;4.00;;;23.00;99.90;;;;;;5032843;28;20053;-50
2023/05/24 08:23:06;;;;;;;6.90;4.32;;;23.00;99.90;;;;;;5032511;28;20037;-50
2023/05/24 08:25:32;;;;;;;5.53;4.22;;;22.90;99.90;;;;;;5032532;28;20013;-50
2023/05/24 08:27:58;;;;;;;5.90;4.00;;;23.00;99.90;;;;;;5032468;28;20381;-49
2023/05/24 08:30:24;;;;;;;6.88;4.30;;;23.00;99.90;;;;;;5032335;28;20424;-50
2023/05/24 08:32:51;;;;;;;5.03;3.67;;;23.00;99.90;;;;;;5015039;28;20496;-50
2023/05/24 08:35:16;;;;;;;6.95;4.03;;;23.00;99.90;;;;;;5032385;28;20057;-50
2023/05/24 08:37:42;;;;;;;6.10;4.47;;;23.00;99.90;;;;;;5032468;28;20025;-50
2023/05/24 08:40:08;;;;;;;7.28;4.40;;;23.00;99.90;;;;;;5036062;28;20401;-50
2023/05/24 08:42:38;;;;;;;8.00;5.13;;;23.00;99.90;;;;;;5036075;28;20017;-50
2023/05/24 08:45:10;;;;;;;9.00;4.53;;;23.00;99.90;;;;;;5035824;28;20067;-49
2023/05/24 08:47:37;;;;;;;5.47;3.95;;;23.00;99.90;;;;;;5035984;28;20079;-50
2023/05/24 08:50:03;;;;;;;8.23;4.82;;;23.00;99.90;;;;;;5036175;28;20017;-50
2023/05/24 08:52:31;;;;;;;10.83;4.57;;;23.00;99.90;;;;;;5034669;28;20030;-50
2023/05/24 08:55:00;;;;;;;7.97;4.78;;;23.00;99.90;;;;;;5035797;28;20259;-50
2023/05/24 08:57:31;;;;;;;7.30;4.57;;;23.00;99.90;;;;;;5036014;28;20036;-51
2023/05/24 08:59:57;;;;;;;11.00;5.22;;;23.00;99.90;;;;;;5035778;28;20021;-50
2023/05/24 09:02:23;;;;;;;9.75;4.82;;;23.00;99.90;;;;;;5035471;28;20058;-50
2023/05/24 09:04:52;;;;;;;9.15;5.25;;;23.00;99.90;;;;;;5035007;28;20060;-50
2023/05/24 09:07:22;;;;;;;7.43;4.97;;;23.10;99.90;;;;;;5035034;28;20089;-51
2023/05/24 09:09:56;;;;;;;11.32;4.95;;;23.10;99.90;;;;;;5035314;28;20021;-50
2023/05/24 09:12:23;;;;;;;9.90;5.57;;;23.10;99.90;;;;;;5034591;28;20033;-50
2023/05/24 09:14:49;;;;;;;7.20;4.50;;;23.10;99.90;;;;;;5035204;28;20031;-52
2023/05/24 09:17:15;;;;;;;9.02;5.88;;;23.10;99.90;;;;;;5035329;28;20033;-54
2023/05/24 09:19:47;;;;;;;10.30;5.65;;;23.10;99.90;;;;;;5035782;28;20029;-50
2023/05/24 09:22:13;;;;;;;9.02;5.47;;;23.10;99.90;;;;;;5035134;28;20033;-51
2023/05/24 09:24:46;;;;;;;11.85;6.00;;;23.10;99.90;;;;;;5035573;28;20445;-50
2023/05/24 09:27:17;;;;;;;7.90;5.60;;;23.10;99.90;;;;;;5035518;28;20013;-51
2023/05/24 09:29:48;;;;;;;8.05;5.22;;;23.10;99.90;;;;;;5035404;28;20025;-51
2023/05/24 09:32:14;;;;;;;8.68;5.70;;;23.20;99.90;;;;;;5035429;28;20049;-51
2023/05/24 09:34:46;;;;;;;7.63;5.18;;;23.10;99.90;;;;;;5035346;28;20370;-50
2023/05/24 09:37:18;;;;;;;7.95;5.65;;;23.20;99.90;;;;;;5035117;28;20507;-50
2023/05/24 09:39:49;;;;;;;12.70;6.38;;;23.20;99.90;;;;;;5035291;28;20032;-51
2023/05/24 09:42:16;;;;;;;9.55;6.03;;;23.10;99.90;;;;;;5034894;28;20025;-51
2023/05/24 09:44:43;;;;;;;9.40;5.60;;;23.10;99.90;;;;;;5035323;28;20026;-51
2023/05/24 09:47:11;;;;;;;8.60;5.50;;;23.20;99.90;;;;;;5035095;28;20022;-50
2023/05/24 09:49:37;;;;;;;7.93;5.65;;;23.20;99.90;;;;;;5034824;28;20028;-51
2023/05/24 09:52:03;;;;;;;7.47;4.30;;;23.20;99.90;;;;;;5034831;28;20018;-53
2023/05/24 09:54:31;;;;;;;6.88;4.40;;;23.20;99.90;;;;;;5034981;28;20033;-52
2023/05/24 09:57:00;;;;;;;5.85;4.47;;;23.20;99.90;;;;;;5034700;28;20037;-52
2023/05/24 09:59:27;;;;;;;16.88;5.95;;;23.20;99.90;;;;;;5034905;28;20028;-54
2023/05/24 10:02:06;;;;;;;10.82;4.20;;;23.20;99.90;;;;;;5034328;28;20115;-54
2023/05/24 10:04:35;;;;;;;19.60;3.75;;;23.20;99.90;;;;;;5034802;28;20026;-52
2023/05/24 10:07:02;;;;;;;18.52;4.75;;;23.20;99.90;;;;;;5034630;28;20018;-52
2023/05/24 10:09:32;;;;;;;17.70;4.20;;;23.20;99.90;;;;;;5034749;28;20028;-51
2023/05/24 10:12:03;;;;;;;14.00;4.18;;;23.30;99.90;;;;;;5034574;28;20079;-52
2023/05/24 10:14:32;;;;;;;18.65;3.78;;;23.20;99.90;;;;;;5034508;28;20022;-52
2023/05/24 10:16:58;;;;;;;15.15;2.65;;;23.20;99.90;;;;;;5033822;28;20037;-52
2023/05/24 10:19:24;;;;;;;10.07;2.92;;;23.30;99.90;;;;;;5005788;28;20018;-52
2023/05/24 10:21:53;;;;;;;12.27;2.20;;;23.30;99.90;;;;;;5032481;28;20469;-53
2023/05/24 10:24:23;;;;;;;3.20;1.70;;;23.30;99.90;;;;;;5032922;28;20022;-53
2023/05/24 10:26:51;;;;;;;5.25;1.58;;;23.30;99.90;;;;;;5034446;28;20017;-53
2023/05/24 10:29:47;;;;;;;5.50;1.17;;;23.30;99.90;;;;;;5034079;28;20022;-53
2023/05/24 10:32:15;;;;;;;6.43;1.58;;;23.30;99.90;;;;;;5033154;28;20075;-53
2023/05/24 10:34:42;;;;;;;4.47;1.65;;;23.30;99.90;;;;;;5034296;28;20013;-53
2023/05/24 10:37:08;;;;;;;2.53;1.17;;;23.30;99.90;;;;;;5033865;28;21186;-54
2023/05/24 10:39:34;;;;;;;2.72;1.20;;;23.30;99.90;;;;;;5034003;28;20289;-54
2023/05/24 10:42:05;;;;;;;2.13;1.23;;;23.30;99.90;;;;;;5034135;28;20466;-54
2023/05/24 10:44:31;;;;;;;2.03;1.08;;;23.30;99.90;;;;;;5033768;28;20053;-53
2023/05/24 10:47:10;;;;;;;5.85;1.42;;;23.30;99.90;;;;;;5034020;28;20059;-53
2023/05/24 10:49:51;;;;;;;4.35;1.17;;;23.30;99.90;;;;;;5033664;28;20030;-54
2023/05/24 10:52:17;;;;;;;3.15;1.33;;;23.30;99.90;;;;;;5033665;28;20025;-54
2023/05/24 10:55:03;;;;;;;4.05;1.33;;;23.40;99.90;;;;;;5033778;28;20036;-53
2023/05/24 10:57:30;;;;;;;2.08;1.00;;;23.40;99.90;;;;;;5033646;28;20084;-54
2023/05/24 10:59:57;;;;;;;;;;;23.40;99.90;;;;;;5033846;28;20075;-53
2023/05/24 11:02:27;;;;;;;1.73;0.80;;;23.40;99.90;;;;;;5032942;28;19917;-54
2023/05/24 11:04:55;;;;;;;4.10;1.42;;;23.40;99.90;;;;;;5033166;28;20041;-54
2023/05/24 11:07:21;;;;;;;3.03;1.30;;;23.50;99.90;;;;;;5033630;28;20466;-55
2023/05/24 11:09:55;;;;;;;4.25;1.25;;;23.40;99.90;;;;;;5033689;28;20453;-55
2023/05/24 11:12:21;;;;;;;5.10;2.38;;;23.50;99.90;;;;;;5033258;28;20121;-55
2023/05/24 11:14:51;;;;;;;10.80;3.22;;;23.50;99.90;;;;;;5033429;28;20108;-55
2023/05/24 11:17:21;;;;;;;8.00;2.45;;;23.50;99.90;;;;;;5032858;28;20563;-53
2023/05/24 11:19:51;;;;;;;6.85;2.80;;;23.50;99.90;;;;;;5033272;28;20049;-54
2023/05/24 11:22:18;;;;;;;7.32;3.10;;;23.50;99.90;;;;;;5033234;28;20021;-53
2023/05/24 11:24:45;;;;;;;11.50;3.50;;;23.60;99.90;;;;;;5033277;28;20033;-53
2023/05/24 11:27:13;;;;;;;6.23;2.40;;;23.50;99.90;;;;;;5033414;28;20028;-54
2023/05/24 11:29:46;;;;;;;8.40;3.17;;;23.60;99.90;;;;;;5033000;28;20438;-53
2023/05/24 11:32:16;;;;;;;4.95;2.30;;;23.60;99.90;;;;;;5033181;28;20172;-53
2023/05/24 11:34:44;;;;;;;32.50;16.20;;;23.60;99.90;;;;;;5033262;28;20017;-53
2023/05/24 11:37:11;;;;;;;22.52;10.27;;;23.60;99.90;;;;;;5032861;28;20500;-53
2023/05/24 11:39:37;;;;;;;14.88;9.25;;;23.60;99.90;;;;;;5032769;28;20037;-54
2023/05/24 11:42:05;;;;;;;16.30;9.45;;;23.60;99.90;;;;;;5033014;28;20023;-55
2023/05/24 11:44:33;;;;;;;11.82;5.55;;;23.60;99.90;;;;;;5032788;28;20490;-55
2023/05/24 11:46:59;;;;;;;;;;;23.60;99.90;;;;;;5033564;28;20026;-53
2023/05/24 11:49:25;;;;;;;7.82;3.80;;;23.60;99.90;;;;;;5032882;28;20437;-52
2023/05/24 11:51:56;;;;;;;7.60;3.35;;;23.60;99.90;;;;;;5032862;28;20091;-52
2023/05/24 11:54:23;;;;;;;9.13;3.35;;;23.60;99.90;;;;;;5032840;28;20025;-53
2023/05/24 11:56:50;;;;;;;5.88;2.67;;;23.60;99.90;;;;;;5033088;28;20494;-53
2023/05/24 11:59:24;;;;;;;5.43;2.40;;;23.60;99.90;;;;;;5015057;28;20382;-54
2023/05/24 12:02:01;;;;;;;3.58;1.88;;;23.60;99.90;;;;;;5032980;28;20048;-55
2023/05/24 12:04:28;;;;;;;3.97;2.00;;;23.60;99.90;;;;;;5032980;28;20018;-54
2023/05/24 12:06:54;;;;;;;3.65;1.65;;;23.60;99.90;;;;;;5032565;28;20100;-53
2023/05/24 12:09:21;;;;;;;18.52;2.15;;;23.60;99.90;;;;;;5032993;28;20033;-55
2023/05/24 12:11:48;;;;;;;5.00;2.67;;;23.70;99.90;;;;;;5032852;28;20372;-54
2023/05/24 12:14:16;;;;;;;3.63;2.05;;;23.70;99.90;;;;;;5035311;28;20017;-54
2023/05/24 12:16:44;;;;;;;4.68;1.88;;;23.70;99.90;;;;;;5036347;28;20129;-56
2023/05/24 12:19:17;;;;;;;3.58;1.60;;;23.70;99.90;;;;;;5036811;28;20033;-56
2023/05/24 12:21:43;;;;;;;2.53;1.77;;;23.70;99.90;;;;;;5036645;28;20021;-55
2023/05/24 12:24:11;;;;;;;2.58;1.90;;;23.70;99.90;;;;;;5036044;28;20029;-56
2023/05/24 12:26:41;;;;;;;3.78;1.88;;;23.70;99.90;;;;;;5036837;28;20080;-53
2023/05/24 12:29:07;;;;;;;2.83;1.50;;;23.70;99.90;;;;;;5036120;28;20029;-55
2023/05/24 12:31:33;;;;;;;10.70;3.15;;;23.70;99.90;;;;;;5035137;28;20378;-55
2023/05/24 12:33:59;;;;;;;10.57;3.10;;;23.70;99.90;;;;;;5036668;28;20108;-55
2023/05/24 12:36:27;;;;;;;6.18;2.13;;;23.70;99.90;;;;;;5036040;28;20538;-55
2023/05/24 12:38:53;;;;;;;;;;;23.70;99.90;;;;;;5036606;28;20033;-55
2023/05/24 12:41:19;;;;;;;5.13;1.50;;;23.70;99.90;;;;;;5036151;28;19959;-54
2023/05/24 12:43:45;;;;;;;2.65;1.25;;;23.70;99.90;;;;;;5020476;28;20088;-55
2023/05/24 12:46:11;;;;;;;6.00;1.50;;;23.70;99.90;;;;;;5028155;28;20018;-55
2023/05/24 12:48:37;;;;;;;2.65;1.27;;;23.70;99.90;;;;;;5035647;28;20051;-55
2023/05/24 12:51:03;;;;;;;2.95;1.10;;;23.70;99.90;;;;;;5027077;28;20109;-55